Time,TemperatureF,DewpointF,PressureIn,WindDirection,WindDirectionDegrees,WindSpeedMPH,WindSpeedGustMPH,Humidity,HourlyPrecipIn,Conditions,Clouds,dailyrainin,SolarRadiationWatts/m^2,SoftwareType,DateUTC
2013-05-23 00:02:00,39.0,33.0,-100.00,North,358,6.0,11.0,78,0.00,,,0.00,0.000000,,2013-05-23 06:02:00,
2013-05-23 00:12:00,39.0,33.0,-100.00,North,358,6.0,11.0,78,0.00,,,0.00,0.000000,,2013-05-23 06:12:00,
2013-05-23 00:21:00,39.0,33.0,-100.00,North,358,6.0,11.0,78,0.00,,,0.00,0.000000,,2013-05-23 06:21:00,
2013-05-23 00:52:00,38.0,34.0,-100.00,NNE,18,2.0,10.0,86,0.00,,,0.00,0.000000,,2013-05-23 06:52:00,
2013-05-23 01:02:00,38.0,34.0,-100.00,NNE,18,2.0,10.0,86,0.00,,,0.00,0.000000,,2013-05-23 07:02:00,
2013-05-23 01:11:00,38.0,34.0,-100.00,NNE,18,2.0,10.0,86,0.00,,,0.00,0.000000,,2013-05-23 07:11:00,
2013-05-23 01:21:00,38.0,34.0,-100.00,NNE,18,2.0,10.0,86,0.00,,,0.00,0.000000,,2013-05-23 07:21:00,
2013-05-23 01:59:00,38.0,36.0,-100.00,NE,54,0.0,7.0,92,0.00,,,0.00,0.000000,,2013-05-23 07:59:00,
2013-05-23 02:11:00,38.0,36.0,-100.00,NE,54,0.0,7.0,92,0.00,,,0.00,0.000000,,2013-05-23 08:11:00,
2013-05-23 02:21:00,38.0,36.0,-100.00,NE,54,0.0,7.0,92,0.00,,,0.00,0.000000,,2013-05-23 08:21:00,
2013-05-23 02:52:00,36.0,33.0,-100.00,ESE,107,0.0,3.0,90,0.01,,,0.01,0.000000,,2013-05-23 08:52:00,
2013-05-23 03:01:00,36.0,33.0,-100.00,ESE,107,0.0,3.0,90,0.01,,,0.01,0.000000,,2013-05-23 09:01:00,
2013-05-23 03:11:00,36.0,33.0,-100.00,ESE,107,0.0,3.0,90,0.01,,,0.01,0.000000,,2013-05-23 09:11:00,
2013-05-23 03:21:00,36.0,33.0,-100.00,ESE,107,0.0,3.0,90,0.01,,,0.01,0.000000,,2013-05-23 09:21:00,
2013-05-23 03:53:00,37.0,34.0,-100.00,NE,53,1.0,5.0,90,0.00,,,0.01,0.000000,,2013-05-23 09:53:00,
2013-05-23 04:02:00,37.0,34.0,-100.00,NE,53,1.0,5.0,90,0.00,,,0.01,0.000000,,2013-05-23 10:02:00,
2013-05-23 04:12:00,37.0,34.0,-100.00,NE,53,1.0,5.0,90,0.00,,,0.01,0.000000,,2013-05-23 10:12:00,
2013-05-23 04:22:00,37.0,34.0,-100.00,NE,53,1.0,5.0,90,0.00,,,0.01,0.000000,,2013-05-23 10:22:00,
2013-05-23 04:52:00,35.0,33.0,-100.00,ENE,68,0.0,7.0,91,0.00,,,0.01,0.000000,,2013-05-23 10:52:00,
2013-05-23 05:02:00,35.0,33.0,-100.00,ENE,68,0.0,7.0,91,0.00,,,0.01,0.000000,,2013-05-23 11:02:00,
2013-05-23 05:11:00,35.0,33.0,-100.00,ENE,68,0.0,7.0,91,0.00,,,0.01,0.000000,,2013-05-23 11:11:00,
2013-05-23 05:21:00,35.0,33.0,-100.00,ENE,68,0.0,7.0,91,0.00,,,0.01,0.000000,,2013-05-23 11:21:00,
2013-05-23 05:52:00,35.0,32.0,-100.00,NNE,20,0.0,2.0,88,0.00,,,0.01,0.000000,,2013-05-23 11:52:00,
2013-05-23 06:01:00,35.0,32.0,-100.00,NNE,20,0.0,2.0,88,0.00,,,0.01,0.000000,,2013-05-23 12:01:00,
2013-05-23 06:11:00,35.0,32.0,-100.00,NNE,20,0.0,2.0,88,0.00,,,0.01,0.000000,,2013-05-23 12:11:00,
2013-05-23 06:21:00,35.0,32.0,-100.00,NNE,20,0.0,2.0,88,0.00,,,0.01,0.000000,,2013-05-23 12:21:00,
2013-05-23 06:52:00,35.0,32.0,-100.00,ENE,73,0.0,5.0,90,0.00,,,0.01,0.000000,,2013-05-23 12:52:00,
2013-05-23 07:01:00,35.0,32.0,-100.00,ENE,73,0.0,5.0,90,0.00,,,0.01,0.000000,,2013-05-23 13:01:00,
2013-05-23 07:11:00,35.0,32.0,-100.00,ENE,73,0.0,5.0,90,0.00,,,0.01,0.000000,,2013-05-23 13:11:00,
2013-05-23 07:21:00,35.0,32.0,-100.00,ENE,73,0.0,5.0,90,0.00,,,0.01,0.000000,,2013-05-23 13:21:00,
2013-05-23 07:52:00,35.0,32.0,-100.00,ENE,61,0.0,4.0,87,0.00,,,0.01,4.000000,,2013-05-23 13:52:00,
2013-05-23 08:01:00,35.0,32.0,-100.00,ENE,61,0.0,4.0,87,0.00,,,0.01,4.000000,,2013-05-23 14:01:00,
2013-05-23 08:11:00,35.0,32.0,-100.00,ENE,61,0.0,4.0,87,0.00,,,0.01,4.000000,,2013-05-23 14:11:00,
2013-05-23 08:21:00,35.0,32.0,-100.00,ENE,61,0.0,4.0,87,0.00,,,0.01,4.000000,,2013-05-23 14:21:00,
2013-05-23 08:52:00,38.0,33.0,-100.00,North,4,2.0,5.0,82,0.00,,,-99.99,58.000000,,2013-05-23 14:52:00,
2013-05-23 09:01:00,38.0,33.0,-100.00,North,4,2.0,5.0,82,0.00,,,-99.99,58.000000,,2013-05-23 15:01:00,
2013-05-23 09:11:00,38.0,33.0,-100.00,North,4,2.0,5.0,82,0.00,,,-99.99,58.000000,,2013-05-23 15:11:00,
2013-05-23 09:21:00,38.0,33.0,-100.00,North,4,2.0,5.0,82,0.00,,,-99.99,58.000000,,2013-05-23 15:21:00,
2013-05-23 09:53:00,39.0,32.0,-100.00,North,10,1.0,6.0,75,0.00,,,0.01,171.000000,,2013-05-23 15:53:00,
2013-05-23 10:03:00,39.0,32.0,-100.00,North,10,1.0,6.0,75,0.00,,,0.01,171.000000,,2013-05-23 16:03:00,
2013-05-23 10:12:00,39.0,32.0,-100.00,North,10,1.0,6.0,75,0.00,,,0.01,171.000000,,2013-05-23 16:12:00,
2013-05-23 10:22:00,39.0,32.0,-100.00,North,10,1.0,6.0,75,0.00,,,0.01,171.000000,,2013-05-23 16:22:00,
2013-05-23 10:52:00,46.0,26.0,-100.00,North,5,3.0,6.0,46,0.00,,,0.01,476.000000,,2013-05-23 16:52:00,
2013-05-23 11:03:00,46.0,26.0,-100.00,North,5,3.0,6.0,46,0.00,,,0.01,476.000000,,2013-05-23 17:03:00,
2013-05-23 11:11:00,46.0,26.0,-100.00,North,5,3.0,6.0,46,0.00,,,0.01,476.000000,,2013-05-23 17:11:00,
2013-05-23 11:22:00,46.0,26.0,-100.00,North,5,3.0,6.0,46,0.00,,,0.01,476.000000,,2013-05-23 17:22:00,
2013-05-23 11:52:00,49.0,24.0,-100.00,WSW,250,2.0,10.0,37,0.00,,,0.01,752.000000,,2013-05-23 17:52:00,
2013-05-23 12:01:00,49.0,24.0,-100.00,WSW,250,2.0,10.0,37,0.00,,,0.01,752.000000,,2013-05-23 18:01:00,
2013-05-23 12:11:00,49.0,24.0,-100.00,WSW,250,2.0,10.0,37,0.00,,,0.01,752.000000,,2013-05-23 18:11:00,
2013-05-23 12:21:00,49.0,24.0,-100.00,WSW,250,2.0,10.0,37,0.00,,,0.01,752.000000,,2013-05-23 18:21:00,
2013-05-23 12:52:00,51.0,26.0,-100.00,North,3,4.0,10.0,37,0.00,,,0.01,903.000000,,2013-05-23 18:52:00,
2013-05-23 13:01:00,51.0,26.0,-100.00,North,3,4.0,10.0,37,0.00,,,0.01,903.000000,,2013-05-23 19:01:00,
2013-05-23 13:11:00,51.0,26.0,-100.00,North,3,4.0,10.0,37,0.00,,,0.01,903.000000,,2013-05-23 19:11:00,
2013-05-23 13:21:00,51.0,26.0,-100.00,North,3,4.0,10.0,37,0.00,,,0.01,903.000000,,2013-05-23 19:21:00,
2013-05-23 13:52:00,54.0,26.0,-100.00,North,357,7.0,14.0,34,0.00,,,0.01,886.000000,,2013-05-23 19:52:00,
2013-05-23 14:02:00,54.0,26.0,-100.00,North,357,7.0,14.0,34,0.00,,,0.01,886.000000,,2013-05-23 20:02:00,
2013-05-23 14:11:00,54.0,26.0,-100.00,North,357,7.0,14.0,34,0.00,,,0.01,886.000000,,2013-05-23 20:11:00,
2013-05-23 14:21:00,54.0,26.0,-100.00,North,357,7.0,14.0,34,0.00,,,0.01,886.000000,,2013-05-23 20:21:00,
2013-05-23 14:52:00,59.0,26.0,-100.00,NW,311,6.0,16.0,28,0.00,,,0.01,999.000000,,2013-05-23 20:52:00,
2013-05-23 15:01:00,59.0,26.0,-100.00,NW,311,6.0,16.0,28,0.00,,,0.01,999.000000,,2013-05-23 21:01:00,
2013-05-23 15:11:00,59.0,26.0,-100.00,NW,311,6.0,16.0,28,0.00,,,0.01,999.000000,,2013-05-23 21:11:00,
2013-05-23 15:21:00,59.0,26.0,-100.00,NW,311,6.0,16.0,28,0.00,,,0.01,999.000000,,2013-05-23 21:21:00,
2013-05-23 15:53:00,58.0,25.0,-100.00,SSE,150,3.0,15.0,28,0.00,,,0.01,1063.000000,,2013-05-23 21:53:00,
2013-05-23 16:02:00,58.0,25.0,-100.00,SSE,150,3.0,15.0,28,0.00,,,0.01,1063.000000,,2013-05-23 22:02:00,
2013-05-23 16:12:00,58.0,25.0,-100.00,SSE,150,3.0,15.0,28,0.00,,,0.01,1063.000000,,2013-05-23 22:12:00,
2013-05-23 16:22:00,58.0,25.0,-100.00,SSE,150,3.0,15.0,28,0.00,,,0.01,1063.000000,,2013-05-23 22:22:00,
2013-05-23 16:52:00,58.0,25.0,-100.00,North,8,9.0,15.0,28,0.00,,,0.01,682.000000,,2013-05-23 22:52:00,
2013-05-23 17:01:00,58.0,25.0,-100.00,North,8,9.0,15.0,28,0.00,,,0.01,682.000000,,2013-05-23 23:01:00,
2013-05-23 17:11:00,58.0,25.0,-100.00,North,8,9.0,15.0,28,0.00,,,0.01,682.000000,,2013-05-23 23:11:00,
2013-05-23 17:21:00,58.0,25.0,-100.00,North,8,9.0,15.0,28,0.00,,,0.01,682.000000,,2013-05-23 23:21:00,
2013-05-23 17:52:00,56.0,23.0,-100.00,North,357,11.0,18.0,27,0.00,,,0.01,815.000000,,2013-05-23 23:52:00,
2013-05-23 18:01:00,56.0,23.0,-100.00,North,357,11.0,18.0,27,0.00,,,0.01,815.000000,,2013-05-24 00:01:00,
2013-05-23 18:11:00,56.0,23.0,-100.00,North,357,11.0,18.0,27,0.00,,,0.01,815.000000,,2013-05-24 00:11:00,
2013-05-23 18:21:00,56.0,23.0,-100.00,North,357,11.0,18.0,27,0.00,,,0.01,815.000000,,2013-05-24 00:21:00,
2013-05-23 18:52:00,53.0,22.0,-100.00,NNE,16,5.0,20.0,29,0.00,,,0.01,313.000000,,2013-05-24 00:52:00,
2013-05-23 19:01:00,53.0,22.0,-100.00,NNE,16,5.0,20.0,29,0.00,,,0.01,313.000000,,2013-05-24 01:01:00,
2013-05-23 19:12:00,53.0,22.0,-100.00,NNE,16,5.0,20.0,29,0.00,,,0.01,313.000000,,2013-05-24 01:12:00,
2013-05-23 19:22:00,53.0,22.0,-100.00,NNE,16,5.0,20.0,29,0.00,,,0.01,313.000000,,2013-05-24 01:22:00,
2013-05-23 19:52:00,52.0,24.0,-100.00,NNE,31,4.0,12.0,33,0.00,,,0.01,56.000000,,2013-05-24 01:52:00,
2013-05-23 20:01:00,52.0,24.0,-100.00,NNE,31,4.0,12.0,33,0.00,,,0.01,56.000000,,2013-05-24 02:01:00,
2013-05-23 20:11:00,52.0,24.0,-100.00,NNE,31,4.0,12.0,33,0.00,,,0.01,56.000000,,2013-05-24 02:11:00,
2013-05-23 20:21:00,52.0,24.0,-100.00,NNE,31,4.0,12.0,33,0.00,,,0.01,56.000000,,2013-05-24 02:21:00,
2013-05-23 20:52:00,48.0,31.0,-100.00,NE,40,1.0,12.0,52,0.00,,,0.01,23.000000,,2013-05-24 02:52:00,
2013-05-23 21:02:00,48.0,31.0,-100.00,NE,40,1.0,12.0,52,0.00,,,0.01,23.000000,,2013-05-24 03:02:00,
2013-05-23 21:11:00,48.0,31.0,-100.00,NE,40,1.0,12.0,52,0.00,,,0.01,23.000000,,2013-05-24 03:11:00,
2013-05-23 21:21:00,48.0,31.0,-100.00,NE,40,1.0,12.0,52,0.00,,,0.01,23.000000,,2013-05-24 03:21:00,
2013-05-23 21:53:00,44.0,32.0,-100.00,SSW,197,0.0,8.0,63,0.00,,,0.01,13.000000,,2013-05-24 03:53:00,
2013-05-23 22:03:00,44.0,32.0,-100.00,SSW,197,0.0,8.0,63,0.00,,,0.01,13.000000,,2013-05-24 04:03:00,
2013-05-23 22:12:00,44.0,32.0,-100.00,SSW,197,0.0,8.0,63,0.00,,,0.01,13.000000,,2013-05-24 04:12:00,
2013-05-23 22:22:00,44.0,32.0,-100.00,SSW,197,0.0,8.0,63,0.00,,,0.01,13.000000,,2013-05-24 04:22:00,
2013-05-23 22:53:00,42.0,34.0,-100.00,North,359,0.0,5.0,74,0.00,,,0.01,0.000000,,2013-05-24 04:53:00,
2013-05-23 23:02:00,42.0,34.0,-100.00,North,359,0.0,5.0,74,0.00,,,0.01,0.000000,,2013-05-24 05:02:00,
2013-05-23 23:12:00,42.0,34.0,-100.00,North,359,0.0,5.0,74,0.00,,,0.01,0.000000,,2013-05-24 05:12:00,
2013-05-23 23:22:00,42.0,34.0,-100.00,North,359,0.0,5.0,74,0.00,,,0.01,0.000000,,2013-05-24 05:22:00,
2013-05-23 23:52:00,42.0,34.0,-100.00,SSE,155,0.0,5.0,72,0.00,,,0.01,0.000000,,2013-05-24 05:52:00,